Time;durP1;ratioP1;P1;durP2;ratioP2;P2;SDS_P1;SDS_P2;PMS_P1;PMS_P2;Temp;Humidity;BMP_temperature;BMP_pressure;BME280_temperature;BME280_humidity;BME280_pressure;Samples;Min_cycle;Max_cycle;Signal;HPM_P1;HPM_P2
2021/08/02 00:02:06;;;;;;;1.93;1.33;;;;;;;14.55;100.00;100089.72;5026701;28;20666;-72
2021/08/02 00:04:41;;;;;;;1.40;1.30;;;;;;;14.51;100.00;100085.25;5011555;28;20222;-71
2021/08/02 00:07:11;;;;;;;1.63;1.40;;;;;;;14.51;100.00;100082.50;5011274;28;20282;-72
2021/08/02 00:09:40;;;;;;;1.27;1.17;;;;;;;14.47;100.00;100090.66;5011480;28;20157;-71
2021/08/02 00:12:09;;;;;;;2.10;1.30;;;;;;;14.38;100.00;100086.38;5011348;28;20195;-72
2021/08/02 00:14:36;;;;;;;1.20;1.20;;;;;;;14.30;100.00;100069.66;5011420;28;20181;-71
2021/08/02 00:17:02;;;;;;;1.37;1.27;;;;;;;14.24;100.00;100078.50;5011269;28;20188;-72
2021/08/02 00:19:28;;;;;;;1.90;1.80;;;;;;;14.19;100.00;100057.56;5011290;28;20184;-71
2021/08/02 00:21:54;;;;;;;2.23;1.40;;;;;;;14.18;100.00;100079.91;5011162;28;20176;-72
2021/08/02 00:24:22;;;;;;;1.63;1.33;;;;;;;14.17;100.00;100098.28;5011266;28;20230;-72
2021/08/02 00:26:48;;;;;;;4.93;1.43;;;;;;;14.21;100.00;100104.72;5011255;28;20223;-72
2021/08/02 00:29:14;;;;;;;3.40;1.33;;;;;;;14.19;100.00;100101.53;5011075;28;20183;-72
2021/08/02 00:31:40;;;;;;;2.03;1.10;;;;;;;14.19;100.00;100100.72;5011174;28;20180;-72
2021/08/02 00:34:05;;;;;;;1.50;1.23;;;;;;;14.16;100.00;100102.19;5009819;28;20179;-71
2021/08/02 00:36:44;;;;;;;1.10;1.10;;;;;;;14.14;100.00;100120.16;5011005;28;20632;-72
2021/08/02 00:39:27;;;;;;;1.50;1.40;;;;;;;14.14;100.00;100117.41;5025468;28;20173;-71
2021/08/02 00:42:26;;;;;;;3.77;1.47;;;;;;;14.12;100.00;100101.28;5010411;28;20180;-72
2021/08/02 00:45:01;;;;;;;1.13;1.03;;;;;;;14.07;100.00;100096.03;5010654;28;20226;-72
2021/08/02 00:47:47;;;;;;;1.53;1.43;;;;;;;14.02;100.00;100112.72;5010463;28;20218;-71
2021/08/02 00:50:18;;;;;;;1.93;1.33;;;;;;;13.98;100.00;100111.81;5011148;28;20207;-71
2021/08/02 00:52:53;;;;;;;1.90;1.80;;;;;;;13.95;100.00;100123.47;5014598;28;20195;-71
2021/08/02 00:55:19;;;;;;;2.27;2.07;;;;;;;13.90;100.00;100123.72;5015184;28;20258;-71
2021/08/02 00:57:47;;;;;;;2.23;2.03;;;;;;;13.89;100.00;100105.63;5014754;28;20199;-71
2021/08/02 01:00:16;;;;;;;1.90;1.80;;;;;;;13.90;100.00;100104.50;5014393;28;20173;-71
2021/08/02 01:02:47;;;;;;;1.83;1.60;;;;;;;13.90;100.00;100066.03;5014626;28;20188;-71
2021/08/02 01:05:14;;;;;;;4.03;1.77;;;;;;;13.84;100.00;100048.97;5014615;28;20200;-71
2021/08/02 01:08:01;;;;;;;1.50;1.40;;;;;;;13.81;100.00;100041.44;5014548;28;20255;-71
2021/08/02 01:10:27;;;;;;;5.53;1.83;;;;;;;13.77;100.00;100072.66;5014765;28;20564;-72
2021/08/02 01:12:57;;;;;;;1.97;1.77;;;;;;;13.72;100.00;100061.88;5014097;28;20176;-71
2021/08/02 01:15:22;;;;;;;1.20;1.17;;;;;;;13.71;100.00;100058.34;5012815;28;20220;-71
2021/08/02 01:17:49;;;;;;;1.50;1.40;;;;;;;13.67;100.00;100071.97;5014146;28;20208;-72
2021/08/02 01:20:15;;;;;;;1.50;1.40;;;;;;;13.70;100.00;100068.53;5014088;28;20176;-71
2021/08/02 01:22:42;;;;;;;1.40;1.30;;;;;;;13.69;100.00;100064.19;5013969;28;20204;-71
2021/08/02 01:25:38;;;;;;;1.57;1.47;;;;;;;13.63;100.00;100027.13;5014364;28;20189;-72
2021/08/02 01:28:13;;;;;;;1.70;1.60;;;;;;;13.57;100.00;99995.53;5013872;28;20300;-72
2021/08/02 01:30:38;;;;;;;1.53;1.43;;;;;;;13.53;100.00;100015.78;5013897;28;20176;-72
2021/08/02 01:33:03;;;;;;;1.50;1.40;;;;;;;13.49;100.00;100025.84;5013712;28;20259;-71
2021/08/02 01:35:29;;;;;;;2.00;1.60;;;;;;;13.44;100.00;100024.09;5028992;28;20272;-71
2021/08/02 01:37:56;;;;;;;1.50;1.40;;;;;;;13.39;100.00;100016.91;5013510;28;20183;-71
2021/08/02 01:40:22;;;;;;;1.70;1.60;;;;;;;13.38;100.00;100026.28;5013714;28;20176;-71
2021/08/02 01:42:47;;;;;;;1.67;1.53;;;;;;;13.35;100.00;100031.66;5013395;28;20177;-71
2021/08/02 01:45:13;;;;;;;1.27;1.17;;;;;;;13.32;100.00;100022.16;5013556;28;20173;-71
2021/08/02 01:47:57;;;;;;;1.77;1.20;;;;;;;13.31;100.00;100017.03;5013415;28;20204;-71
2021/08/02 01:50:47;;;;;;;2.10;1.50;;;;;;;13.27;100.00;100038.81;5013497;28;20659;-71
2021/08/02 01:53:27;;;;;;;1.87;1.77;;;;;;;13.27;100.00;100052.53;5013225;28;20208;-71
2021/08/02 01:56:02;;;;;;;2.23;1.20;;;;;;;13.28;100.00;100058.84;5013348;28;20195;-71
2021/08/02 01:58:32;;;;;;;1.70;1.60;;;;;;;13.24;100.00;100044.19;5013467;28;20279;-71
2021/08/02 02:00:58;;;;;;;1.53;1.30;;;;;;;13.19;100.00;100075.41;5013092;28;20188;-72
2021/08/02 02:03:26;;;;;;;4.80;1.23;;;;;;;13.18;100.00;100075.72;5012969;28;20215;-72
2021/08/02 02:06:06;;;;;;;1.77;1.67;;;;;;;13.15;100.00;100073.63;5013268;28;20172;-72
2021/08/02 02:08:44;;;;;;;1.50;1.40;;;;;;;13.14;100.00;100069.28;5013056;28;20638;-72
2021/08/02 02:11:10;;;;;;;2.03;1.63;;;;;;;13.14;100.00;100089.28;5013070;28;20184;-71
2021/08/02 02:13:45;;;;;;;2.67;1.67;;;;;;;13.09;100.00;100089.50;5012820;28;20183;-72
2021/08/02 02:16:15;;;;;;;1.93;1.73;;;;;;;13.09;100.00;100079.31;5012994;28;20279;-71
2021/08/02 02:18:46;;;;;;;2.23;2.03;;;;;;;13.03;100.00;100088.91;5012879;28;20196;-72
2021/08/02 02:21:12;;;;;;;1.97;1.87;;;;;;;13.01;100.00;100095.84;5013104;28;20628;-71
2021/08/02 02:23:39;;;;;;;1.80;1.70;;;;;;;12.96;100.00;100094.13;5012887;28;20177;-71
2021/08/02 02:26:07;;;;;;;1.80;1.43;;;;;;;12.91;100.00;100109.97;5012945;28;20184;-72
2021/08/02 02:28:34;;;;;;;2.10;2.00;;;;;;;12.88;100.00;100125.16;5012688;28;20208;-72
2021/08/02 02:31:00;;;;;;;2.23;2.13;;;;;;;12.81;100.00;100103.75;5013060;28;20180;-71
2021/08/02 02:33:29;;;;;;;2.83;2.57;;;;;;;12.79;100.00;100127.97;5012527;28;20263;-72
2021/08/02 02:35:56;;;;;;;1.77;1.67;;;;;;;12.73;100.00;100139.44;5012591;28;20173;-72
2021/08/02 02:38:22;;;;;;;2.63;2.43;;;;;;;12.71;100.00;100138.97;5012386;28;20204;-72
2021/08/02 02:40:48;;;;;;;2.50;2.27;;;;;;;12.66;100.00;100131.75;5012553;28;20189;-71
2021/08/02 02:43:14;;;;;;;2.77;2.50;;;;;;;12.64;100.00;100145.00;5012180;28;20234;-71
2021/08/02 02:45:43;;;;;;;2.10;1.97;;;;;;;12.65;100.00;100165.00;5012508;28;20180;-71
2021/08/02 02:48:11;;;;;;;3.30;3.00;;;;;;;12.63;100.00;100159.03;5012306;28;20236;-71
2021/08/02 02:50:37;;;;;;;2.77;2.57;;;;;;;12.61;100.00;100164.06;5012423;28;20180;-71
2021/08/02 02:53:04;;;;;;;2.90;2.70;;;;;;;12.59;100.00;100171.81;5012445;28;20251;-72
2021/08/02 02:55:32;;;;;;;2.70;2.50;;;;;;;12.56;100.00;100169.72;5012241;28;20745;-71
2021/08/02 02:57:57;;;;;;;2.73;2.53;;;;;;;12.54;100.00;100189.22;5012255;28;20176;-72
2021/08/02 03:00:23;;;;;;;2.80;2.60;;;;;;;12.49;100.00;100160.09;5012254;28;20185;-72
2021/08/02 03:02:50;;;;;;;2.70;2.50;;;;;;;12.52;100.00;100188.75;5012001;28;20188;-71
2021/08/02 03:05:18;;;;;;;9.13;4.30;;;;;;;12.51;100.00;100187.16;5012094;28;20260;-71
2021/08/02 03:07:44;;;;;;;2.97;2.73;;;;;;;12.50;100.00;100191.03;5012148;28;20291;-71
2021/08/02 03:10:12;;;;;;;5.37;4.00;;;;;;;12.50;100.00;100200.06;5012020;28;20187;-72
2021/08/02 03:12:37;;;;;;;2.87;2.67;;;;;;;12.48;100.00;100205.06;5011393;28;20569;-71
2021/08/02 03:15:03;;;;;;;3.40;3.20;;;;;;;12.50;100.00;100193.78;5011391;28;20238;-71
2021/08/02 03:17:30;;;;;;;3.20;3.00;;;;;;;12.47;100.00;100227.31;5011917;28;20208;-71
2021/08/02 03:19:55;;;;;;;2.60;2.40;;;;;;;12.44;100.00;100223.31;5011886;28;20169;-71
2021/08/02 03:22:33;;;;;;;2.57;2.20;;;;;;;12.44;100.00;100223.31;5011684;28;20620;-71
2021/08/02 03:25:21;;;;;;;2.57;2.37;;;;;;;12.43;100.00;100229.88;5026664;28;20670;-71
2021/08/02 03:28:17;;;;;;;2.77;2.40;;;;;;;12.39;100.00;100247.31;5011951;28;20216;-71
2021/08/02 03:30:45;;;;;;;5.27;2.40;;;;;;;12.33;100.00;100240.44;5018644;28;20220;-71
2021/08/02 03:33:15;;;;;;;3.27;2.77;;;;;;;12.33;100.00;100238.50;5008333;28;20637;-71
2021/08/02 03:35:47;;;;;;;2.30;2.20;;;;;;;12.32;100.00;100236.88;5010434;28;20176;-71
2021/08/02 03:38:14;;;;;;;1.47;1.37;;;;;;;12.34;100.00;100266.69;5011710;28;20207;-72
2021/08/02 03:40:42;;;;;;;1.60;1.50;;;;;;;12.34;100.00;100283.94;5011890;28;20168;-71
2021/08/02 03:43:09;;;;;;;1.50;0.97;;;;;;;12.34;100.00;100267.50;5011722;28;20183;-71
2021/08/02 03:45:35;;;;;;;1.80;1.50;;;;;;;12.36;100.00;100278.13;5011976;28;20633;-71
2021/08/02 03:48:02;;;;;;;1.30;1.20;;;;;;;12.38;100.00;100242.97;5012061;28;20227;-71
2021/08/02 03:50:29;;;;;;;2.50;2.27;;;;;;;12.39;100.00;100272.78;5011792;28;20195;-71
2021/08/02 03:52:54;;;;;;;3.53;2.30;;;;;;;12.38;100.00;100268.44;5011611;28;20528;-71
2021/08/02 03:55:21;;;;;;;2.13;1.37;;;;;;;12.39;100.00;100280.19;5011786;28;20184;-71
2021/08/02 03:57:47;;;;;;;1.70;1.60;;;;;;;12.37;100.00;100304.38;5011702;28;20722;-71
2021/08/02 04:00:12;;;;;;;2.13;2.03;;;;;;;12.37;100.00;100261.34;5011670;28;20169;-71
2021/08/02 04:02:38;;;;;;;2.33;2.23;;;;;;;12.37;100.00;100277.00;5011396;28;20537;-71
2021/08/02 04:05:04;;;;;;;1.90;1.70;;;;;;;12.35;100.00;100291.00;5011405;28;20202;-71
2021/08/02 04:07:29;;;;;;;3.33;1.80;;;;;;;12.33;100.00;100237.69;5011407;28;20200;-71
2021/08/02 04:09:54;;;;;;;2.70;1.80;;;;;;;12.36;100.00;100228.81;5011504;28;20542;-71
2021/08/02 04:12:20;;;;;;;1.53;1.43;;;;;;;12.33;100.00;100216.56;5011286;28;20575;-71
2021/08/02 04:14:45;;;;;;;4.00;2.63;;;;;;;12.32;100.00;100228.66;5011242;28;20608;-71
2021/08/02 04:17:10;;;;;;;2.10;1.10;;;;;;;12.32;100.00;100214.97;5011444;28;20165;-71
2021/08/02 04:19:36;;;;;;;2.20;2.00;;;;;;;12.31;100.00;100220.78;5026780;28;20171;-71
2021/08/02 04:22:01;;;;;;;6.17;2.67;;;;;;;12.33;100.00;100207.56;5011212;28;20193;-71
2021/08/02 04:24:27;;;;;;;1.97;1.87;;;;;;;12.33;100.00;100243.16;5011131;28;20181;-71
2021/08/02 04:26:53;;;;;;;1.97;1.87;;;;;;;12.33;100.00;100254.13;5010776;28;20612;-72
2021/08/02 04:29:18;;;;;;;2.40;1.60;;;;;;;12.32;100.00;100241.56;5011248;28;20203;-72
2021/08/02 04:31:44;;;;;;;1.80;1.70;;;;;;;12.34;100.00;100253.78;5011281;28;20624;-71
2021/08/02 04:34:09;;;;;;;2.10;1.60;;;;;;;12.36;100.00;100232.34;5011211;28;20176;-71
2021/08/02 04:36:34;;;;;;;1.40;1.30;;;;;;;12.42;100.00;100263.91;5011186;28;20175;-71
2021/08/02 04:39:00;;;;;;;2.17;1.97;;;;;;;12.44;100.00;100267.16;5010955;28;20576;-71
2021/08/02 04:41:26;;;;;;;1.87;1.77;;;;;;;12.43;100.00;100281.94;5010975;28;20826;-71
2021/08/02 04:43:52;;;;;;;2.47;2.27;;;;;;;12.47;100.00;100279.38;5011185;28;20179;-71
2021/08/02 04:46:17;;;;;;;2.33;2.13;;;;;;;12.48;100.00;100283.72;5011129;28;20177;-72
2021/08/02 04:48:43;;;;;;;1.90;1.70;;;;;;;12.50;100.00;100284.19;5009767;28;20212;-71
2021/08/02 04:51:09;;;;;;;2.53;2.13;;;;;;;12.50;100.00;100309.66;5011035;28;20219;-71
2021/08/02 04:53:34;;;;;;;3.73;2.30;;;;;;;12.50;100.00;100271.28;5011175;28;20184;-71
2021/08/02 04:56:00;;;;;;;3.37;2.83;;;;;;;12.49;100.00;100351.09;5011312;28;20199;-71
2021/08/02 04:58:25;;;;;;;2.30;1.93;;;;;;;12.49;100.00;100334.66;5011274;28;20253;-71
2021/08/02 05:00:50;;;;;;;2.03;1.93;;;;;;;12.48;100.00;100347.56;5011018;28;20173;-71
2021/08/02 05:03:16;;;;;;;2.07;1.87;;;;;;;12.49;100.00;100394.94;5010686;28;20181;-72
2021/08/02 05:05:41;;;;;;;2.87;2.30;;;;;;;12.48;100.00;100416.06;5010933;28;20183;-71
2021/08/02 05:08:06;;;;;;;3.30;2.53;;;;;;;12.49;100.00;100359.31;5011115;28;20196;-71
2021/08/02 05:10:32;;;;;;;1.80;1.70;;;;;;;12.52;100.00;100366.88;5010906;28;20180;-71
2021/08/02 05:12:58;;;;;;;4.93;2.10;;;;;;;12.56;100.00;100350.59;5010747;28;20235;-71
2021/08/02 05:15:24;;;;;;;6.73;2.40;;;;;;;12.61;100.00;100347.69;5010637;28;20188;-71
2021/08/02 05:17:49;;;;;;;2.50;2.30;;;;;;;12.66;100.00;100336.53;5010769;28;20194;-71
2021/08/02 05:20:18;;;;;;;2.37;2.17;;;;;;;12.67;100.00;100354.59;5009318;28;20215;-72
2021/08/02 05:22:43;;;;;;;1.77;1.67;;;;;;;12.69;100.00;100344.09;5010520;28;20205;-71
2021/08/02 05:25:09;;;;;;;1.87;1.77;;;;;;;12.76;100.00;100344.41;5011189;28;20212;-71
2021/08/02 05:27:34;;;;;;;3.70;1.87;;;;;;;12.80;100.00;100370.03;5025744;28;20216;-72
2021/08/02 05:30:00;;;;;;;1.90;1.57;;;;;;;12.84;100.00;100310.66;5010718;28;20620;-71
2021/08/02 05:32:25;;;;;;;1.70;1.60;;;;;;;12.90;100.00;100336.78;5010508;28;20181;-71
2021/08/02 05:34:51;;;;;;;1.90;1.80;;;;;;;12.94;100.00;100307.53;5009265;28;20180;-71
2021/08/02 05:37:16;;;;;;;0.90;0.90;;;;;;;13.00;100.00;100330.09;5012411;28;20207;-71
2021/08/02 05:39:41;;;;;;;1.13;1.00;;;;;;;13.07;100.00;100311.19;5014232;28;20218;-71
2021/08/02 05:42:07;;;;;;;1.70;1.60;;;;;;;13.11;100.00;100320.34;5013367;28;20183;-71
2021/08/02 05:44:33;;;;;;;2.23;1.60;;;;;;;13.19;100.00;100326.97;5013572;28;20223;-71
2021/08/02 05:46:59;;;;;;;1.40;1.30;;;;;;;13.28;100.00;100327.72;5013509;28;20200;-72
2021/08/02 05:49:24;;;;;;;1.00;1.00;;;;;;;13.34;100.00;100340.13;5013595;28;20173;-72
2021/08/02 05:51:51;;;;;;;1.60;1.50;;;;;;;13.38;100.00;100325.38;5013119;28;20181;-71
2021/08/02 05:54:16;;;;;;;0.93;0.93;;;;;;;13.46;100.00;100336.66;5013580;28;20177;-71
2021/08/02 05:56:42;;;;;;;1.03;1.03;;;;;;;13.49;100.00;100331.31;5013418;28;20191;-71
2021/08/02 05:59:07;;;;;;;2.07;1.60;;;;;;;13.51;100.00;100329.03;5013601;28;20186;-71
2021/08/02 06:01:32;;;;;;;1.60;1.50;;;;;;;13.52;100.00;100333.38;5013062;28;20632;-71
2021/08/02 06:03:58;;;;;;;1.27;1.00;;;;;;;13.55;100.00;100331.91;5013311;28;20200;-71
2021/08/02 06:06:23;;;;;;;0.80;0.50;;;;;;;13.59;100.00;100338.31;5013082;28;20184;-71
2021/08/02 06:08:48;;;;;;;0.60;0.60;;;;;;;13.62;100.00;100327.50;5013246;28;20234;-71
2021/08/02 06:11:14;;;;;;;0.70;0.70;;;;;;;13.66;100.00;100336.66;5013224;28;20266;-71
2021/08/02 06:13:39;;;;;;;1.20;1.10;;;;;;;13.74;100.00;100332.22;5012959;28;20207;-71
2021/08/02 06:16:04;;;;;;;1.37;0.87;;;;;;;13.75;100.00;100335.81;5013027;28;20195;-71
2021/08/02 06:18:30;;;;;;;1.27;1.10;;;;;;;13.79;100.00;100339.47;5028227;28;20188;-71
2021/08/02 06:20:55;;;;;;;1.47;0.87;;;;;;;13.84;100.00;100340.06;5013001;28;20172;-72
2021/08/02 06:23:20;;;;;;;0.30;0.30;;;;;;;13.89;100.00;100350.06;5012586;28;20180;-71
2021/08/02 06:25:46;;;;;;;3.77;0.90;;;;;;;13.90;100.00;100348.94;5012918;28;20632;-72
2021/08/02 06:28:12;;;;;;;1.73;1.23;;;;;;;13.94;100.00;100350.66;5012854;28;20334;-72
2021/08/02 06:30:37;;;;;;;0.80;0.80;;;;;;;14.02;100.00;100359.13;5012878;28;20203;-70
2021/08/02 06:33:03;;;;;;;0.73;0.73;;;;;;;14.03;100.00;100356.06;5012401;28;20632;-72
2021/08/02 06:35:28;;;;;;;0.87;0.80;;;;;;;13.99;100.00;100352.38;5012620;28;20242;-71
2021/08/02 06:37:54;;;;;;;0.60;0.60;;;;;;;14.12;100.00;100364.22;5012470;28;20173;-72
2021/08/02 06:40:19;;;;;;;0.97;0.80;;;;;;;14.23;100.00;100357.19;5012695;28;20307;-72
2021/08/02 06:42:45;;;;;;;0.67;0.67;;;;;;;14.32;100.00;100362.59;5012298;28;20176;-72
2021/08/02 06:45:11;;;;;;;0.33;0.33;;;;;;;14.28;100.00;100352.28;5012586;28;20172;-72
2021/08/02 06:47:36;;;;;;;1.67;0.50;;;;;;;14.32;100.00;100355.16;5011816;28;20209;-71
2021/08/02 06:50:03;;;;;;;1.37;0.77;;;;;;;14.40;100.00;100354.25;5012073;28;20192;-71
2021/08/02 06:52:28;;;;;;;4.37;0.70;;;;;;;14.37;100.00;100349.44;5012344;28;20212;-72
2021/08/02 06:54:54;;;;;;;0.70;0.70;;;;;;;14.37;100.00;100348.66;5012614;28;20215;-72
2021/08/02 06:57:20;;;;;;;0.70;0.70;;;;;;;14.36;100.00;100345.09;5012376;28;20217;-72
2021/08/02 06:59:45;;;;;;;0.80;0.73;;;;;;;14.47;100.00;100340.00;5012403;28;20192;-72
2021/08/02 07:02:11;;;;;;;0.83;0.77;;;;;;;14.58;100.00;100341.16;5012487;28;20168;-72
2021/08/02 07:04:36;;;;;;;0.67;0.60;;;;;;;14.66;100.00;100334.75;5012207;28;20616;-72
2021/08/02 07:07:02;;;;;;;1.00;0.63;;;;;;;14.73;99.54;100342.44;5007672;28;20284;-73
2021/08/02 07:09:27;;;;;;;1.93;0.80;;;;;;;14.77;98.40;100330.44;5012330;28;20185;-73
2021/08/02 07:11:52;;;;;;;0.37;0.37;;;;;;;14.86;98.74;100330.31;5012690;28;20616;-73
2021/08/02 07:14:18;;;;;;;0.30;0.30;;;;;;;14.92;96.62;100339.16;5012231;28;20656;-73
2021/08/02 07:16:43;;;;;;;1.67;0.50;;;;;;;14.95;94.72;100336.50;5012281;28;20499;-73
2021/08/02 07:19:08;;;;;;;0.50;0.50;;;;;;;15.07;92.65;100335.72;5012395;28;20212;-75
2021/08/02 07:21:34;;;;;;;0.83;0.57;;;;;;;15.20;91.46;100328.28;5010924;28;20736;-75
2021/08/02 07:23:59;;;;;;;0.10;0.10;;;;;;;15.32;90.21;100334.53;5012297;28;20311;-76
2021/08/02 07:26:26;;;;;;;0.73;0.60;;;;;;;15.32;89.97;100331.78;5012196;28;20184;-75
2021/08/02 07:28:52;;;;;;;0.87;0.40;;;;;;;15.23;88.96;100333.88;5012509;28;20180;-73
2021/08/02 07:31:17;;;;;;;0.93;0.90;;;;;;;15.21;88.71;100329.88;5012125;28;20169;-73
2021/08/02 07:33:43;;;;;;;0.40;0.20;;;;;;;15.18;88.58;100325.84;5012024;28;20299;-72
2021/08/02 07:36:08;;;;;;;0.20;0.20;;;;;;;15.22;90.77;100331.47;5012093;28;20191;-72
2021/08/02 07:38:37;;;;;;;4.23;0.40;;;;;;;15.25;89.67;100328.81;5011718;28;20172;-72
2021/08/02 07:41:03;;;;;;;0.67;0.33;;;;;;;15.26;89.26;100335.94;5011993;28;20173;-72
2021/08/02 07:43:28;;;;;;;0.30;0.30;;;;;;;15.28;87.45;100341.88;5011775;28;20212;-72
2021/08/02 07:45:53;;;;;;;1.00;0.47;;;;;;;15.36;87.75;100329.16;5011951;28;20180;-72
2021/08/02 07:48:19;;;;;;;0.50;0.50;;;;;;;15.42;87.47;100578.31;5011711;28;20286;-72
2021/08/02 07:50:44;;;;;;;1.00;0.80;;;;;;;15.52;86.27;100566.88;5011896;28;20628;-72
2021/08/02 07:53:09;;;;;;;0.60;0.60;;;;;;;15.59;85.64;100549.78;5011556;28;20181;-71
2021/08/02 07:55:35;;;;;;;0.63;0.50;;;;;;;15.51;85.38;100529.47;5011822;28;20184;-72
2021/08/02 07:58:00;;;;;;;0.30;0.30;;;;;;;15.58;86.08;100526.94;5009034;28;20196;-72
2021/08/02 08:00:25;;;;;;;0.53;0.40;;;;;;;15.62;86.38;100472.00;5004283;28;20264;-72
2021/08/02 08:02:51;;;;;;;0.57;0.57;;;;;;;15.70;87.93;100435.28;5008612;28;20192;-72
2021/08/02 08:05:16;;;;;;;0.30;0.30;;;;;;;15.73;86.00;100404.28;5010970;28;20176;-72
2021/08/02 08:07:43;;;;;;;1.27;0.40;;;;;;;15.72;85.17;100394.41;5011397;28;20246;-72
2021/08/02 08:10:10;;;;;;;0.50;0.37;;;;;;;15.70;86.17;100393.97;5011482;28;20678;-72
2021/08/02 08:12:36;;;;;;;0.67;0.20;;;;;;;15.68;85.80;100394.31;5010961;28;20532;-74
2021/08/02 08:15:02;;;;;;;1.03;0.50;;;;;;;15.61;85.07;100393.28;5011283;28;20188;-72
2021/08/02 08:17:27;;;;;;;2.37;0.70;;;;;;;15.62;86.28;100390.19;5011442;28;20179;-72
2021/08/02 08:19:52;;;;;;;1.60;0.20;;;;;;;15.79;86.31;100391.88;5011625;28;20318;-72
2021/08/02 08:22:18;;;;;;;0.40;0.40;;;;;;;15.81;85.59;100386.03;5011131;28;20243;-72
2021/08/02 08:24:43;;;;;;;2.90;0.80;;;;;;;16.04;87.27;100387.91;5011246;28;20220;-72
2021/08/02 08:27:08;;;;;;;1.20;1.10;;;;;;;16.20;84.00;100390.75;5011190;28;20200;-73
2021/08/02 08:29:34;;;;;;;1.63;0.90;;;;;;;16.44;83.38;100377.97;5011303;28;20605;-72
2021/08/02 08:31:59;;;;;;;2.20;1.23;;;;;;;16.59;82.03;100379.97;5010942;28;20188;-72
2021/08/02 08:34:24;;;;;;;0.50;0.50;;;;;;;16.62;78.89;100380.06;5011581;28;20223;-72
2021/08/02 08:36:50;;;;;;;1.03;0.53;;;;;;;16.51;79.95;100376.22;5011155;28;20636;-72
2021/08/02 08:39:15;;;;;;;2.93;0.90;;;;;;;16.53;79.94;100373.91;5010864;28;20187;-73
2021/08/02 08:41:42;;;;;;;0.83;0.60;;;;;;;16.56;80.44;100369.66;5011006;28;20706;-72
2021/08/02 08:44:08;;;;;;;0.70;0.40;;;;;;;16.50;80.28;100366.34;5011037;28;20204;-72
2021/08/02 08:46:33;;;;;;;0.37;0.30;;;;;;;16.56;80.20;100377.94;5010894;28;20208;-72
2021/08/02 08:48:59;;;;;;;0.83;0.50;;;;;;;16.64;79.95;100368.69;5010990;28;20314;-72
2021/08/02 08:51:27;;;;;;;2.17;0.83;;;;;;;16.76;80.85;100376.09;5010811;28;20305;-72
2021/08/02 08:53:53;;;;;;;0.33;0.33;;;;;;;16.77;78.18;100372.19;5011039;28;20175;-72
2021/08/02 08:56:18;;;;;;;0.97;0.57;;;;;;;16.75;76.12;100374.50;5008789;28;20176;-72
2021/08/02 08:58:44;;;;;;;0.30;0.20;;;;;;;16.71;76.00;100365.34;5011203;28;20199;-72
2021/08/02 09:01:09;;;;;;;0.10;0.10;;;;;;;16.51;75.56;100376.22;5010858;28;20177;-72
2021/08/02 09:03:35;;;;;;;0.10;0.10;;;;;;;16.55;75.93;100371.59;5009373;28;20177;-72
2021/08/02 09:06:05;;;;;;;0.67;0.47;;;;;;;16.71;76.15;100379.13;5010849;28;20177;-72
2021/08/02 09:08:40;;;;;;;0.63;0.43;;;;;;;16.92;74.20;100374.16;5010730;28;20247;-72
2021/08/02 09:11:05;;;;;;;0.33;0.23;;;;;;;17.03;71.29;100369.72;5010830;28;20176;-72
2021/08/02 09:13:33;;;;;;;0.77;0.50;;;;;;;17.17;69.55;100370.06;5014002;28;20172;-72
2021/08/02 09:16:09;;;;;;;0.20;0.17;;;;;;;17.02;69.94;100368.09;5014058;28;20551;-72
2021/08/02 09:18:34;;;;;;;0.30;0.20;;;;;;;16.98;70.78;100375.50;5014134;28;20169;-72
2021/08/02 09:21:01;;;;;;;0.40;0.30;;;;;;;17.15;71.40;100377.09;5013965;28;20188;-72
2021/08/02 09:23:27;;;;;;;0.20;0.20;;;;;;;17.09;69.90;100368.28;5013773;28;20523;-74
2021/08/02 09:25:54;;;;;;;0.33;0.33;;;;;;;17.02;71.79;100367.31;5014007;28;20299;-73
2021/08/02 09:28:23;;;;;;;0.30;0.30;;;;;;;16.83;72.91;100363.31;5013855;28;20207;-74
2021/08/02 09:30:54;;;;;;;0.63;0.30;;;;;;;16.69;72.84;100364.91;5014232;28;20196;-73
2021/08/02 09:33:20;;;;;;;0.87;0.37;;;;;;;16.57;74.82;100366.53;5013451;28;20173;-73
2021/08/02 09:35:49;;;;;;;4.37;0.50;;;;;;;16.47;75.07;100369.81;5013792;28;20536;-73
2021/08/02 09:38:16;;;;;;;0.47;0.43;;;;;;;16.41;76.62;100364.91;5013465;28;20188;-73
2021/08/02 09:40:43;;;;;;;1.50;0.53;;;;;;;16.34;76.97;100373.78;5013854;28;20203;-73
2021/08/02 09:43:12;;;;;;;0.17;0.17;;;;;;;16.27;76.18;100365.31;5013386;28;20447;-73
2021/08/02 09:45:39;;;;;;;0.40;0.33;;;;;;;16.26;76.32;100363.72;5013547;28;20176;-73
2021/08/02 09:48:05;;;;;;;0.33;0.33;;;;;;;16.26;77.34;100375.53;5012547;28;20789;-72
2021/08/02 09:50:31;;;;;;;0.20;0.20;;;;;;;16.23;77.57;100373.50;5011263;28;20275;-73
2021/08/02 09:52:58;;;;;;;0.50;0.50;;;;;;;16.25;77.21;100367.63;5013807;28;20247;-73
2021/08/02 09:55:24;;;;;;;0.27;0.27;;;;;;;16.36;78.38;100372.28;5013999;28;20176;-73
2021/08/02 09:57:54;;;;;;;2.83;0.80;;;;;;;16.48;77.26;100368.66;5013985;28;20180;-73
2021/08/02 10:00:21;;;;;;;0.60;0.60;;;;;;;16.58;77.81;100373.66;5013832;28;20165;-73
2021/08/02 10:02:48;;;;;;;0.97;0.70;;;;;;;16.59;78.28;100377.22;5013803;28;20176;-74
2021/08/02 10:05:15;;;;;;;1.37;0.30;;;;;;;16.64;78.43;100365.94;5013873;28;20238;-74
2021/08/02 10:07:43;;;;;;;0.20;0.20;;;;;;;16.53;76.18;100370.38;5012405;28;20196;-73
2021/08/02 10:10:09;;;;;;;1.13;0.50;;;;;;;16.51;76.97;100359.69;5006707;28;20507;-76
2021/08/02 10:12:46;;;;;;;0.63;0.27;;;;;;;16.42;77.33;100369.25;5028747;28;20243;-73
2021/08/02 10:15:17;;;;;;;0.40;0.40;;;;;;;16.28;78.17;100369.66;5013508;28;20255;-73
2021/08/02 10:17:48;;;;;;;0.43;0.40;;;;;;;16.28;78.75;100378.75;5013707;28;20251;-73
2021/08/02 10:20:34;;;;;;;6.30;1.10;;;;;;;16.28;78.87;100369.66;5013524;28;20192;-73
2021/08/02 10:23:02;;;;;;;1.23;0.70;;;;;;;16.32;78.17;100374.13;5013502;28;20219;-73
2021/08/02 10:25:37;;;;;;;0.40;0.40;;;;;;;16.47;79.33;100367.03;5013453;28;20187;-73
2021/08/02 10:28:15;;;;;;;0.40;0.40;;;;;;;16.62;78.09;100370.97;5013408;28;20224;-73
2021/08/02 10:30:42;;;;;;;0.70;0.53;;;;;;;16.92;79.59;100371.41;5013279;28;20177;-73
2021/08/02 10:33:08;;;;;;;0.97;0.47;;;;;;;17.30;76.75;100376.28;5013084;28;20264;-73
2021/08/02 10:35:45;;;;;;;1.90;0.40;;;;;;;17.47;75.91;100364.03;5013127;28;20181;-73
2021/08/02 10:38:13;;;;;;;1.53;0.60;;;;;;;17.60;73.68;100370.25;5013043;28;20176;-73
2021/08/02 10:40:46;;;;;;;0.87;0.60;;;;;;;17.59;75.97;100363.94;5013169;28;20252;-72
2021/08/02 10:43:11;;;;;;;0.57;0.50;;;;;;;17.58;74.25;100370.63;5012898;28;20263;-73
2021/08/02 10:45:41;;;;;;;0.57;0.27;;;;;;;17.37;73.09;100362.66;5013060;28;20339;-73
2021/08/02 10:48:07;;;;;;;0.43;0.43;;;;;;;17.25;74.11;100358.03;5013208;28;20287;-73
2021/08/02 10:50:37;;;;;;;0.50;0.50;;;;;;;17.18;74.89;100355.09;5012928;28;20311;-73
2021/08/02 10:53:17;;;;;;;0.70;0.57;;;;;;;17.41;73.85;100396.69;5012749;28;20168;-73
2021/08/02 10:55:53;;;;;;;0.80;0.80;;;;;;;17.76;71.88;100395.91;5004231;28;20183;-73
2021/08/02 10:58:29;;;;;;;0.40;0.40;;;;;;;17.90;70.16;100404.50;5008858;28;20171;-73
2021/08/02 11:00:59;;;;;;;0.70;0.53;;;;;;;18.08;70.87;100634.41;5012212;28;20542;-73
2021/08/02 11:03:36;;;;;;;0.43;0.43;;;;;;;18.35;71.77;100472.22;5011867;28;20572;-73
2021/08/02 11:06:07;;;;;;;2.90;0.50;;;;;;;18.50;66.50;100418.00;5010778;28;20204;-75
2021/08/02 11:08:35;;;;;;;0.70;0.40;;;;;;;18.72;67.31;100384.06;5011967;28;20200;-74
2021/08/02 11:11:04;;;;;;;0.30;0.30;;;;;;;18.80;65.93;100379.44;5010885;28;20276;-75
2021/08/02 11:13:30;;;;;;;0.57;0.50;;;;;;;18.98;65.21;100375.84;5007134;28;20231;-74
2021/08/02 11:15:56;;;;;;;0.70;0.50;;;;;;;18.89;64.31;100372.50;5009412;28;20212;-75
2021/08/02 11:18:26;;;;;;;0.93;0.40;;;;;;;18.88;61.47;100383.94;5011773;28;20200;-75
2021/08/02 11:20:53;;;;;;;0.47;0.40;;;;;;;18.81;63.79;100365.25;5011041;28;20643;-74
2021/08/02 11:23:29;;;;;;;0.57;0.50;;;;;;;18.77;65.21;100372.69;5011373;28;20177;-75